Time;durP1;ratioP1;P1;durP2;ratioP2;P2;SDS_P1;SDS_P2;PMS_P1;PMS_P2;Temp;Humidity;BMP_temperature;BMP_pressure;BME280_temperature;BME280_humidity;BME280_pressure;Samples;Min_cycle;Max_cycle;Signal;HPM_P1;HPM_P2
2024/01/21 00:00:52;;;;;;;;;;;;;;;-1.09;91.80;102365.75;6274626;22;20303;-74
2024/01/21 00:03:17;;;;;;;;;;;;;;;-1.12;92.25;102356.13;6273707;22;19984;-75
2024/01/21 00:05:42;;;;;;;;;;;;;;;-1.14;90.89;102354.19;6273422;22;20337;-75
2024/01/21 00:08:07;;;;;;;;;;;;;;;-1.17;92.27;102349.69;6273225;22;20218;-74
2024/01/21 00:10:33;;;;;;;;;;;;;;;-1.21;91.47;102345.03;6273682;22;20237;-74
2024/01/21 00:12:58;;;;;;;;;;;;;;;-1.23;91.69;102344.88;6273695;22;19907;-74
2024/01/21 00:15:23;;;;;;;;;;;;;;;-1.26;92.07;102342.03;6273534;22;20255;-74
2024/01/21 00:17:48;;;;;;;;;;;;;;;-1.30;91.38;102333.94;6273231;22;19903;-74
2024/01/21 00:20:14;;;;;;;;;;;;;;;-1.31;92.28;102332.13;6273707;22;19952;-74
2024/01/21 00:22:40;;;;;;;;;;;;;;;-1.33;91.60;102326.88;6274491;22;19907;-74
2024/01/21 00:25:06;;;;;;;;;;;;;;;-1.36;91.10;102329.13;6273139;22;19915;-74
2024/01/21 00:27:31;;;;;;;;;;;;;;;-1.38;91.36;102330.63;6273586;22;19907;-74
2024/01/21 00:29:56;;;;;;;;;;;;;;;-1.40;90.63;102319.38;6246150;22;20223;-74
2024/01/21 00:32:21;;;;;;;;;;;;;;;-1.42;91.05;102315.75;6273864;22;19973;-74
2024/01/21 00:34:46;;;;;;;;;;;;;;;-1.44;91.00;102317.28;6273529;22;19980;-74
2024/01/21 00:37:12;;;;;;;;;;;;;;;-1.46;91.19;102303.44;6273497;22;19907;-74
2024/01/21 00:39:37;;;;;;;;;;;;;;;-1.49;91.49;102303.13;6273256;22;19962;-74
2024/01/21 00:42:02;;;;;;;;;;;;;;;-1.50;91.12;102303.91;6237937;23;19994;-74
2024/01/21 00:44:27;;;;;;;;;;;;;;;-1.53;90.00;102303.63;6240890;23;19938;-74
2024/01/21 00:46:53;;;;;;;;;;;;;;;-1.57;90.89;102300.75;6242343;23;19903;-74
2024/01/21 00:49:18;;;;;;;;;;;;;;;-1.60;90.08;102303.00;6242590;23;20453;-74
2024/01/21 00:51:44;;;;;;;;;;;;;;;-1.62;90.10;102304.53;6242774;23;20337;-74
2024/01/21 00:54:09;;;;;;;;;;;;;;;-1.64;90.85;102311.13;6215625;23;19903;-74
2024/01/21 00:56:34;;;;;;;;;;;;;;;-1.66;90.13;102304.97;6215190;23;19959;-74
2024/01/21 00:58:59;;;;;;;;;;;;;;;-1.68;90.37;102303.94;6242334;23;19903;-74
2024/01/21 01:01:25;;;;;;;;;;;;;;;-1.69;90.33;102309.81;6242627;23;20321;-74
2024/01/21 01:03:50;;;;;;;;;;;;;;;-1.71;90.37;102301.06;6215853;23;19950;-74
2024/01/21 01:06:15;;;;;;;;;;;;;;;-1.73;90.69;102288.94;6242640;23;19994;-74
2024/01/21 01:08:40;;;;;;;;;;;;;;;-1.76;89.99;102279.31;6242342;23;19904;-74
2024/01/21 01:11:06;;;;;;;;;;;;;;;-1.78;90.67;102274.03;6215958;23;19923;-74
2024/01/21 01:13:31;;;;;;;;;;;;;;;-1.78;90.96;102275.72;6242584;23;19907;-74
2024/01/21 01:15:58;;;;;;;;;;;;;;;-1.79;90.60;102268.78;6242487;23;19904;-74
2024/01/21 01:18:23;;;;;;;;;;;;;;;-1.81;90.99;102266.09;6215484;23;19903;-74
2024/01/21 01:20:48;;;;;;;;;;;;;;;-1.82;91.26;102258.28;6242187;23;19911;-74
2024/01/21 01:23:14;;;;;;;;;;;;;;;-1.85;91.36;102247.78;6215827;23;19904;-74
2024/01/21 01:25:39;;;;;;;;;;;;;;;-1.87;92.71;102237.38;6242089;23;19908;-74
2024/01/21 01:28:05;;;;;;;;;;;;;;;-1.89;91.55;102232.91;6215236;23;20026;-74
2024/01/21 01:30:30;;;;;;;;;;;;;;;-1.90;91.11;102233.63;6242218;23;19904;-74
2024/01/21 01:32:55;;;;;;;;;;;;;;;-1.91;91.75;102230.19;6242678;23;20341;-74
2024/01/21 01:35:20;;;;;;;;;;;;;;;-1.93;91.12;102222.38;6243066;23;19907;-74
2024/01/21 01:37:45;;;;;;;;;;;;;;;-1.93;91.46;102218.91;6243460;23;19949;-74
2024/01/21 01:40:11;;;;;;;;;;;;;;;-1.96;91.34;102222.06;6215348;23;19956;-74
2024/01/21 01:42:36;;;;;;;;;;;;;;;-1.96;92.21;102206.75;6225404;23;19946;-74
2024/01/21 01:45:01;;;;;;;;;;;;;;;-1.98;91.97;102207.38;6242517;23;19907;-74
2024/01/21 01:47:26;;;;;;;;;;;;;;;-2.00;92.64;102204.66;6242617;23;19907;-74
2024/01/21 01:49:53;;;;;;;;;;;;;;;-2.04;91.62;102197.47;6242663;23;19899;-74
2024/01/21 01:52:19;;;;;;;;;;;;;;;-2.04;92.02;102186.31;6242980;23;19949;-74
2024/01/21 01:54:45;;;;;;;;;;;;;;;-2.07;92.03;102176.75;6242356;22;20274;-74
2024/01/21 01:57:10;;;;;;;;;;;;;;;-2.06;91.71;102185.28;6242771;22;19929;-74
2024/01/21 01:59:36;;;;;;;;;;;;;;;-2.08;92.43;102180.03;6243882;23;19903;-74
2024/01/21 02:02:02;;;;;;;;;;;;;;;-2.08;91.59;102177.50;6244345;23;20238;-74
2024/01/21 02:04:27;;;;;;;;;;;;;;;-2.11;92.48;102180.63;6244272;23;19915;-74
2024/01/21 02:06:52;;;;;;;;;;;;;;;-2.11;91.89;102169.53;6242409;23;19907;-74
2024/01/21 02:09:18;;;;;;;;;;;;;;;-2.12;91.77;102167.72;6243891;23;19953;-74
2024/01/21 02:11:43;;;;;;;;;;;;;;;-2.14;91.24;102159.03;6243530;23;19961;-74
2024/01/21 02:14:08;;;;;;;;;;;;;;;-2.15;91.64;102158.13;6244305;23;19926;-74
2024/01/21 02:16:34;;;;;;;;;;;;;;;-2.16;91.15;102150.31;6242593;23;19957;-74
2024/01/21 02:19:01;;;;;;;;;;;;;;;-2.16;91.55;102140.09;6244163;23;19982;-75
2024/01/21 02:21:26;;;;;;;;;;;;;;;-2.16;90.30;102147.75;6243669;23;19910;-74
2024/01/21 02:23:51;;;;;;;;;;;;;;;-2.18;91.10;102150.16;6244394;23;20246;-74
2024/01/21 02:26:17;;;;;;;;;;;;;;;-2.19;90.34;102150.03;6243934;23;20327;-74
2024/01/21 02:28:42;;;;;;;;;;;;;;;-2.18;91.42;102141.63;6244031;23;19908;-74
2024/01/21 02:31:07;;;;;;;;;;;;;;;-2.19;91.38;102129.59;6244050;23;19908;-74
2024/01/21 02:33:32;;;;;;;;;;;;;;;-2.19;91.03;102129.59;6244279;23;20381;-74
2024/01/21 02:35:58;;;;;;;;;;;;;;;-2.19;91.38;102117.72;6244291;23;19907;-74
2024/01/21 02:38:23;;;;;;;;;;;;;;;-2.18;90.94;102113.53;6244289;23;19907;-74
2024/01/21 02:40:48;;;;;;;;;;;;;;;-2.18;91.54;102104.22;6241564;23;20400;-74
2024/01/21 02:43:14;;;;;;;;;;;;;;;-2.17;91.01;102097.44;6241859;23;19943;-74
2024/01/21 02:45:39;;;;;;;;;;;;;;;-2.15;91.07;102098.50;6243969;23;19969;-75
2024/01/21 02:48:04;;;;;;;;;;;;;;;-2.13;91.19;102096.97;6241917;23;19986;-74
2024/01/21 02:50:30;;;;;;;;;;;;;;;-2.11;91.03;102092.94;6243595;23;19908;-74
2024/01/21 02:52:55;;;;;;;;;;;;;;;-2.09;91.34;102099.06;6243899;23;19956;-74
2024/01/21 02:55:20;;;;;;;;;;;;;;;-2.07;90.88;102099.22;6243694;22;19943;-74
2024/01/21 02:57:45;;;;;;;;;;;;;;;-2.05;90.64;102098.59;6242023;23;19904;-74
2024/01/21 03:00:11;;;;;;;;;;;;;;;-2.01;90.80;102099.81;6243515;23;19903;-74
2024/01/21 03:02:37;;;;;;;;;;;;;;;-2.00;90.63;102101.59;6243838;23;19903;-74
2024/01/21 03:05:02;;;;;;;;;;;;;;;-1.99;90.42;102094.06;6244045;23;19908;-74
2024/01/21 03:07:27;;;;;;;;;;;;;;;-1.96;90.39;102098.56;6243896;23;19983;-75
2024/01/21 03:09:52;;;;;;;;;;;;;;;-1.94;90.68;102086.84;6241248;23;19953;-74
2024/01/21 03:12:18;;;;;;;;;;;;;;;-1.91;90.59;102082.03;6243598;23;20395;-74
2024/01/21 03:14:43;;;;;;;;;;;;;;;-1.89;91.17;102066.84;6241832;23;19932;-74
2024/01/21 03:17:09;;;;;;;;;;;;;;;-1.89;90.93;102054.09;6241548;23;20340;-74
2024/01/21 03:19:34;;;;;;;;;;;;;;;-1.88;90.50;102054.22;6242093;23;20322;-74
2024/01/21 03:22:00;;;;;;;;;;;;;;;-1.85;91.17;102051.06;6242987;23;20325;-74
2024/01/21 03:24:25;;;;;;;;;;;;;;;-1.82;91.20;102056.47;6243896;23;20398;-74
2024/01/21 03:26:50;;;;;;;;;;;;;;;-1.78;91.41;102053.44;6243628;23;19976;-74
2024/01/21 03:29:16;;;;;;;;;;;;;;;-1.74;91.37;102055.50;6243380;23;19907;-74
2024/01/21 03:31:41;;;;;;;;;;;;;;;-1.70;90.73;102070.34;6241639;23;19914;-74
2024/01/21 03:34:06;;;;;;;;;;;;;;;-1.65;90.80;102064.03;6241228;23;20311;-74
2024/01/21 03:36:31;;;;;;;;;;;;;;;-1.58;90.39;102055.25;6243731;23;20281;-74
2024/01/21 03:38:56;;;;;;;;;;;;;;;-1.53;90.39;102055.69;6243882;23;20326;-74
2024/01/21 03:41:22;;;;;;;;;;;;;;;-1.50;90.04;102054.31;6244115;23;20351;-74
2024/01/21 03:43:47;;;;;;;;;;;;;;;-1.45;88.99;102053.09;6273011;22;19919;-74
2024/01/21 03:46:12;;;;;;;;;;;;;;;-1.40;88.45;102044.16;6274369;22;20329;-74
2024/01/21 03:48:38;;;;;;;;;;;;;;;-1.36;88.27;102049.53;6274078;22;19922;-74
2024/01/21 03:51:03;;;;;;;;;;;;;;;-1.34;88.31;102038.72;6274146;22;19914;-74
2024/01/21 03:53:29;;;;;;;;;;;;;;;-1.31;89.09;102045.75;6273883;22;19913;-74
2024/01/21 03:55:54;;;;;;;;;;;;;;;-1.30;87.96;102038.22;6273188;22;19915;-74
2024/01/21 03:58:19;;;;;;;;;;;;;;;-1.28;87.88;102033.25;6273714;22;19903;-74
2024/01/21 04:00:44;;;;;;;;;;;;;;;-1.27;88.22;102029.94;6273986;22;20322;-74
2024/01/21 04:03:10;;;;;;;;;;;;;;;-1.27;88.65;102007.81;6273655;22;19952;-74
2024/01/21 04:05:35;;;;;;;;;;;;;;;-1.25;88.12;101998.63;6273363;22;19930;-74
2024/01/21 04:08:00;;;;;;;;;;;;;;;-1.23;87.14;102004.78;6246594;22;20008;-74
2024/01/21 04:10:25;;;;;;;;;;;;;;;-1.21;87.88;101997.25;6273615;22;19904;-74
2024/01/21 04:12:51;;;;;;;;;;;;;;;-1.19;87.26;101992.25;6273444;22;19910;-74
2024/01/21 04:15:16;;;;;;;;;;;;;;;-1.17;87.42;101995.84;6273323;22;20279;-74
2024/01/21 04:17:41;;;;;;;;;;;;;;;-1.16;86.60;101996.00;6273478;22;19903;-74
2024/01/21 04:20:08;;;;;;;;;;;;;;;-1.17;87.36;101994.22;6273455;22;20330;-74
2024/01/21 04:22:33;;;;;;;;;;;;;;;-1.15;87.62;101999.47;6273103;22;19903;-74
2024/01/21 04:24:59;;;;;;;;;;;;;;;-1.16;88.17;102010.44;6273062;22;19915;-74
2024/01/21 04:27:24;;;;;;;;;;;;;;;-1.16;87.99;102007.88;6246245;22;19903;-74
2024/01/21 04:29:49;;;;;;;;;;;;;;;-1.17;88.40;102004.44;6245819;22;19899;-74
2024/01/21 04:32:14;;;;;;;;;;;;;;;-1.17;88.42;101990.72;6273412;22;19911;-74
2024/01/21 04:34:40;;;;;;;;;;;;;;;-1.16;87.82;101985.78;6246249;22;19903;-74
2024/01/21 04:37:05;;;;;;;;;;;;;;;-1.13;88.04;101973.25;6273161;22;19914;-74
2024/01/21 04:39:30;;;;;;;;;;;;;;;-1.10;87.75;101970.06;6245792;22;20241;-74
2024/01/21 04:41:55;;;;;;;;;;;;;;;-1.08;87.39;101960.88;6272873;22;19915;-74
2024/01/21 04:44:21;;;;;;;;;;;;;;;-1.05;87.33;101943.25;6245858;22;20309;-74
2024/01/21 04:46:46;;;;;;;;;;;;;;;-1.03;87.37;101931.47;6273024;22;20238;-74
2024/01/21 04:49:11;;;;;;;;;;;;;;;-0.97;86.49;101919.25;6246230;22;20307;-74
2024/01/21 04:51:37;;;;;;;;;;;;;;;-0.90;86.39;101926.69;6274067;22;19932;-74
2024/01/21 04:54:03;;;;;;;;;;;;;;;-0.84;86.67;101902.38;6273435;22;19972;-74
2024/01/21 04:56:28;;;;;;;;;;;;;;;-0.79;85.86;101909.69;6272585;22;20237;-74
2024/01/21 04:58:53;;;;;;;;;;;;;;;-0.73;85.66;101888.84;6246043;22;19903;-74
2024/01/21 05:01:21;;;;;;;;;;;;;;;-0.65;85.87;101892.97;6246196;22;19910;-74
2024/01/21 05:03:46;;;;;;;;;;;;;;;-0.61;86.02;101892.47;6246078;22;19957;-74
2024/01/21 05:06:11;;;;;;;;;;;;;;;-0.57;86.36;101876.59;6245575;22;19907;-74
2024/01/21 05:08:37;;;;;;;;;;;;;;;-0.54;86.57;101887.13;6273439;22;19903;-74
2024/01/21 05:11:03;;;;;;;;;;;;;;;-0.50;87.25;101889.94;6272938;22;19964;-74
2024/01/21 05:13:28;;;;;;;;;;;;;;;-0.47;86.80;101895.31;6272661;22;19910;-74
2024/01/21 05:15:53;;;;;;;;;;;;;;;-0.44;86.40;101895.56;6272913;22;19931;-75
2024/01/21 05:18:20;;;;;;;;;;;;;;;-0.39;85.49;101897.75;6245949;22;19976;-74
2024/01/21 05:20:45;;;;;;;;;;;;;;;-0.37;86.54;101892.75;6273228;22;19960;-74
2024/01/21 05:23:10;;;;;;;;;;;;;;;-0.33;86.93;101907.63;6246244;22;19903;-74
2024/01/21 05:25:36;;;;;;;;;;;;;;;-0.29;85.81;101907.13;6272741;22;19914;-74
2024/01/21 05:28:01;;;;;;;;;;;;;;;-0.26;86.08;101909.00;6272513;22;20417;-74
2024/01/21 05:30:26;;;;;;;;;;;;;;;-0.24;86.86;101885.34;6273431;22;19926;-74
2024/01/21 05:32:51;;;;;;;;;;;;;;;-0.20;85.78;101884.81;6273813;22;19903;-74
2024/01/21 05:35:17;;;;;;;;;;;;;;;-0.18;86.06;101885.84;6247935;22;20315;-74
2024/01/21 05:37:42;;;;;;;;;;;;;;;-0.16;87.12;101890.19;6275285;22;19903;-74
2024/01/21 05:40:08;;;;;;;;;;;;;;;-0.14;86.42;101898.94;6274917;22;19929;-74
2024/01/21 05:42:33;;;;;;;;;;;;;;;-0.12;86.34;101903.38;6274625;22;19912;-74
2024/01/21 05:44:59;;;;;;;;;;;;;;;-0.10;86.36;101895.84;6274559;22;19911;-74
2024/01/21 05:47:24;;;;;;;;;;;;;;;-0.08;86.61;101882.38;6274419;22;19977;-74
2024/01/21 05:49:49;;;;;;;;;;;;;;;-0.07;87.21;101880.75;6248004;22;19911;-74
2024/01/21 05:52:14;;;;;;;;;;;;;;;-0.08;86.63;101881.50;6248136;22;20310;-74
2024/01/21 05:54:40;;;;;;;;;;;;;;;-0.07;86.79;101888.44;6274910;22;20325;-74
2024/01/21 05:57:06;;;;;;;;;;;;;;;-0.01;85.30;101894.06;6274810;22;19915;-73
2024/01/21 05:59:32;;;;;;;;;;;;;;;0.00;85.96;101893.28;6275022;22;19907;-74
2024/01/21 06:01:57;;;;;;;;;;;;;;;-0.01;86.14;101887.25;6274870;22;19906;-74
2024/01/21 06:04:23;;;;;;;;;;;;;;;0.00;86.03;101888.16;6274827;22;19915;-74
2024/01/21 06:06:49;;;;;;;;;;;;;;;-0.01;85.98;101881.25;6274675;22;19910;-74
2024/01/21 06:09:14;;;;;;;;;;;;;;;0.02;86.22;101880.59;6275107;22;19903;-74
2024/01/21 06:11:40;;;;;;;;;;;;;;;0.01;86.16;101872.00;6247309;22;19910;-74
2024/01/21 06:14:05;;;;;;;;;;;;;;;0.02;87.03;101863.56;6247403;22;19909;-74
2024/01/21 06:16:30;;;;;;;;;;;;;;;0.03;86.58;101878.16;6274468;22;19935;-74
2024/01/21 06:18:56;;;;;;;;;;;;;;;0.03;86.58;101873.06;6274636;22;19907;-74
2024/01/21 06:21:21;;;;;;;;;;;;;;;0.04;86.50;101890.19;6274486;22;20360;-74
2024/01/21 06:23:46;;;;;;;;;;;;;;;0.07;87.25;101884.44;6247562;22;19907;-74
2024/01/21 06:26:15;;;;;;;;;;;;;;;0.09;86.96;101895.72;6274105;22;19956;-75
2024/01/21 06:28:40;;;;;;;;;;;;;;;0.10;86.54;101911.22;6274078;22;19903;-75
2024/01/21 06:31:06;;;;;;;;;;;;;;;0.12;86.22;101899.41;6275032;22;19903;-74
2024/01/21 06:33:31;;;;;;;;;;;;;;;0.15;85.73;101885.97;6274455;22;19942;-74
2024/01/21 06:35:57;;;;;;;;;;;;;;;0.16;86.58;101892.91;6274718;22;19910;-74
2024/01/21 06:38:22;;;;;;;;;;;;;;;0.19;85.81;101899.91;6275302;22;20965;-74
2024/01/21 06:40:48;;;;;;;;;;;;;;;0.20;86.11;101906.84;6274807;22;20416;-74
2024/01/21 06:43:14;;;;;;;;;;;;;;;0.21;86.33;101903.53;6246920;22;19911;-74
2024/01/21 06:45:39;;;;;;;;;;;;;;;0.24;86.14;101893.50;6273931;22;19921;-74
2024/01/21 06:48:04;;;;;;;;;;;;;;;0.25;85.34;101905.56;6247361;22;19911;-74
2024/01/21 06:50:30;;;;;;;;;;;;;;;0.28;85.93;101900.69;6274473;22;19937;-74
2024/01/21 06:52:55;;;;;;;;;;;;;;;0.28;85.54;101910.94;6274438;22;20318;-75
2024/01/21 06:55:20;;;;;;;;;;;;;;;0.28;86.19;101919.53;6274804;22;19907;-74
2024/01/21 06:57:45;;;;;;;;;;;;;;;0.30;85.29;101924.78;6246931;22;19976;-74
2024/01/21 07:00:11;;;;;;;;;;;;;;;0.31;85.63;101911.19;6247306;22;19907;-74
2024/01/21 07:02:36;;;;;;;;;;;;;;;0.31;85.95;101911.19;6274126;22;19979;-74
2024/01/21 07:05:01;;;;;;;;;;;;;;;0.33;85.66;101907.06;6274435;22;19918;-74
2024/01/21 07:07:27;;;;;;;;;;;;;;;0.34;85.23;101903.75;6274480;22;20341;-74
2024/01/21 07:09:52;;;;;;;;;;;;;;;0.36;85.36;101880.81;6274059;22;19910;-74
2024/01/21 07:12:17;;;;;;;;;;;;;;;0.38;85.71;101861.28;6273903;22;19949;-75
2024/01/21 07:14:42;;;;;;;;;;;;;;;0.39;85.57;101869.16;6246943;22;19911;-74
2024/01/21 07:17:08;;;;;;;;;;;;;;;0.41;84.35;101841.94;6274836;22;19914;-74
2024/01/21 07:19:33;;;;;;;;;;;;;;;0.43;83.97;101853.22;6273946;22;19907;-75
2024/01/21 07:21:58;;;;;;;;;;;;;;;0.46;84.29;101848.31;6273851;22;19907;-74
2024/01/21 07:24:24;;;;;;;;;;;;;;;0.47;82.95;101857.81;6246020;22;20417;-74
2024/01/21 07:26:49;;;;;;;;;;;;;;;0.48;83.58;101851.94;6274109;22;19907;-74
2024/01/21 07:29:14;;;;;;;;;;;;;;;0.49;83.15;101851.16;6273843;22;19903;-75
2024/01/21 07:31:39;;;;;;;;;;;;;;;0.50;82.75;101850.38;6273703;22;19981;-75
2024/01/21 07:34:09;;;;;;;;;;;;;;;0.51;82.63;101847.03;6274286;22;19910;-75
2024/01/21 07:36:34;;;;;;;;;;;;;;;0.51;82.32;101853.84;6274015;22;20348;-74
2024/01/21 07:38:59;;;;;;;;;;;;;;;0.52;83.02;101842.78;6274139;22;19907;-74
2024/01/21 07:41:24;;;;;;;;;;;;;;;0.52;83.35;101840.22;6273640;22;19907;-74
2024/01/21 07:43:50;;;;;;;;;;;;;;;0.51;82.87;101841.03;6273501;22;19915;-75
2024/01/21 07:46:15;;;;;;;;;;;;;;;0.51;83.16;101834.22;6273539;22;19915;-75
2024/01/21 07:48:40;;;;;;;;;;;;;;;0.53;82.62;101857.41;6246771;22;20285;-75
2024/01/21 07:51:05;;;;;;;;;;;;;;;0.52;83.68;101871.91;6273528;22;20296;-75
2024/01/21 07:53:30;;;;;;;;;;;;;;;0.52;83.56;101879.63;6274628;22;20322;-75
2024/01/21 07:55:56;;;;;;;;;;;;;;;0.54;83.37;101882.31;6273800;22;19914;-74
2024/01/21 07:58:21;;;;;;;;;;;;;;;0.54;83.34;101895.13;6246648;22;19911;-74
2024/01/21 08:00:47;;;;;;;;;;;;;;;0.55;83.73;101896.91;6273730;22;19907;-75
2024/01/21 08:03:12;;;;;;;;;;;;;;;0.56;83.45;101908.06;6273782;22;19977;-75
2024/01/21 08:05:37;;;;;;;;;;;;;;;0.55;83.44;101919.09;6273968;22;19911;-74
2024/01/21 08:08:03;;;;;;;;;;;;;;;0.55;83.34;101947.28;6273887;22;19913;-75
2024/01/21 08:10:28;;;;;;;;;;;;;;;0.56;83.86;101946.53;6273747;22;19918;-74
2024/01/21 08:12:54;;;;;;;;;;;;;;;0.56;83.93;101955.09;6273510;22;19903;-74
2024/01/21 08:15:19;;;;;;;;;;;;;;;0.56;83.82;101961.91;6246129;22;19903;-74
2024/01/21 08:17:44;;;;;;;;;;;;;;;0.58;84.08;101968.06;6272885;22;19910;-75
2024/01/21 08:20:10;;;;;;;;;;;;;;;0.60;83.53;101971.66;6273396;22;19927;-75
2024/01/21 08:22:35;;;;;;;;;;;;;;;0.62;83.71;101962.41;6273066;22;19942;-74
2024/01/21 08:25:01;;;;;;;;;;;;;;;0.67;84.45;101973.97;6245868;22;19907;-75
2024/01/21 08:27:26;;;;;;;;;;;;;;;0.70;83.77;101961.38;6273235;22;19910;-75
2024/01/21 08:29:51;;;;;;;;;;;;;;;0.73;83.89;101953.94;6272739;22;19910;-75
2024/01/21 08:32:16;;;;;;;;;;;;;;;0.76;83.31;101954.16;6273262;22;19910;-75
2024/01/21 08:34:42;;;;;;;;;;;;;;;0.77;83.57;101940.59;6245886;22;20211;-75
2024/01/21 08:37:07;;;;;;;;;;;;;;;0.80;82.82;101935.69;6273354;22;19903;-75
2024/01/21 08:39:32;;;;;;;;;;;;;;;0.82;83.21;101941.84;6273321;22;20315;-75
2024/01/21 08:41:57;;;;;;;;;;;;;;;0.85;82.14;101919.00;6273134;22;19915;-75
2024/01/21 08:44:23;;;;;;;;;;;;;;;0.88;83.26;101920.03;6246138;22;19907;-75
2024/01/21 08:46:48;;;;;;;;;;;;;;;0.92;81.95;101919.50;6273474;22;19907;-75
2024/01/21 08:49:14;;;;;;;;;;;;;;;0.91;83.45;101926.28;6246325;22;19982;-75
2024/01/21 08:51:39;;;;;;;;;;;;;;;0.94;82.42;101930.78;6273471;22;19903;-75
2024/01/21 08:54:04;;;;;;;;;;;;;;;0.96;83.62;101942.97;6273063;22;19903;-75
2024/01/21 08:56:32;;;;;;;;;;;;;;;1.00;82.71;101949.22;6272689;22;20002;-75
2024/01/21 08:58:57;;;;;;;;;;;;;;;1.04;83.44;101935.84;6246136;22;19903;-76
2024/01/21 09:01:22;;;;;;;;;;;;;;;1.08;83.99;101958.44;6273393;22;20390;-76
2024/01/21 09:03:47;;;;;;;;;;;;;;;1.11;84.11;101955.22;6273404;22;20333;-77
2024/01/21 09:06:13;;;;;;;;;;;;;;;1.13;84.02;101931.47;6272538;22;19911;-77
2024/01/21 09:08:38;;;;;;;;;;;;;;;1.14;84.41;101951.22;6273626;22;19911;-77
2024/01/21 09:11:03;;;;;;;;;;;;;;;1.15;84.76;101941.84;6275343;22;19990;-77
2024/01/21 09:13:29;;;;;;;;;;;;;;;1.16;84.19;101949.69;6275563;22;19907;-77
2024/01/21 09:15:54;;;;;;;;;;;;;;;1.17;84.97;101935.16;6275384;22;20257;-77
2024/01/21 09:18:20;;;;;;;;;;;;;;;1.17;85.51;101959.19;6275516;22;19997;-78
2024/01/21 09:20:45;;;;;;;;;;;;;;;1.18;86.22;101960.94;6248724;22;19907;-77
2024/01/21 09:23:10;;;;;;;;;;;;;;;1.19;86.43;101972.13;6275705;22;20021;-77
2024/01/21 09:25:35;;;;;;;;;;;;;;;1.19;86.19;101983.28;6275349;22;20345;-78
2024/01/21 09:28:01;;;;;;;;;;;;;;;1.21;87.07;101980.84;6247231;22;20333;-78
2024/01/21 09:30:26;;;;;;;;;;;;;;;1.23;86.23;101969.00;6275188;22;19903;-77
2024/01/21 09:32:51;;;;;;;;;;;;;;;1.24;87.05;101978.50;6247259;22;19903;-74
2024/01/21 09:35:17;;;;;;;;;;;;;;;1.25;87.43;101977.75;6275668;22;19903;-73
2024/01/21 09:37:42;;;;;;;;;;;;;;;1.28;87.84;101992.50;6275308;22;19986;-73
2024/01/21 09:40:09;;;;;;;;;;;;;;;1.29;87.28;101984.00;6275724;22;20021;-74
2024/01/21 09:42:34;;;;;;;;;;;;;;;1.30;88.16;102006.34;6275438;22;19988;-74
2024/01/21 09:44:59;;;;;;;;;;;;;;;1.30;88.33;102006.34;6275318;22;19911;-74
2024/01/21 09:47:26;;;;;;;;;;;;;;;1.30;89.07;102002.09;6275092;22;19903;-73
2024/01/21 09:49:51;;;;;;;;;;;;;;;1.29;89.30;101984.94;6275366;22;19910;-73
2024/01/21 09:52:18;;;;;;;;;;;;;;;1.30;89.55;101996.09;6275278;22;20238;-73
2024/01/21 09:54:43;;;;;;;;;;;;;;;1.30;91.29;101989.25;6275304;22;20348;-74
2024/01/21 09:57:11;;;;;;;;;;;;;;;1.32;91.17;102007.38;6275071;22;19942;-74
2024/01/21 09:59:36;;;;;;;;;;;;;;;1.32;90.86;101994.56;6275386;22;19903;-74
2024/01/21 10:02:02;;;;;;;;;;;;;;;1.31;92.13;101990.19;6275213;22;19910;-74
2024/01/21 10:04:27;;;;;;;;;;;;;;;1.33;92.05;101998.88;6248146;22;19907;-74
2024/01/21 10:06:55;;;;;;;;;;;;;;;1.34;92.00;101993.00;6247997;22;19907;-73
2024/01/21 10:09:23;;;;;;;;;;;;;;;1.36;92.67;102001.69;6274757;22;19914;-74
2024/01/21 10:11:52;;;;;;;;;;;;;;;1.35;92.21;101987.09;6275118;22;19941;-74
2024/01/21 10:14:17;;;;;;;;;;;;;;;1.36;93.65;101986.28;6275083;22;19902;-74
2024/01/21 10:16:43;;;;;;;;;;;;;;;1.36;93.77;101988.84;6275265;22;19934;-74
2024/01/21 10:19:13;;;;;;;;;;;;;;;1.37;93.68;101988.09;6274006;22;19907;-74
2024/01/21 10:21:38;;;;;;;;;;;;;;;1.38;94.45;101987.31;6248191;22;19926;-74
2024/01/21 10:24:05;;;;;;;;;;;;;;;1.40;93.53;101978.06;6275139;22;20318;-74
2024/01/21 10:26:31;;;;;;;;;;;;;;;1.42;93.95;101978.19;6275408;22;19934;-74
2024/01/21 10:28:56;;;;;;;;;;;;;;;1.44;93.90;101969.81;6275200;22;19914;-74
2024/01/21 10:31:21;;;;;;;;;;;;;;;1.46;95.11;101960.56;6274914;22;19911;-74
2024/01/21 10:33:47;;;;;;;;;;;;;;;1.49;95.54;101959.91;6247710;22;19918;-75
2024/01/21 10:36:14;;;;;;;;;;;;;;;1.50;95.50;101944.63;6274786;22;20427;-75
2024/01/21 10:38:58;;;;;;;;;;;;;;;1.52;95.63;101957.56;6247530;22;19915;-74
2024/01/21 10:41:30;;;;;;;;;;;;;;;1.52;96.46;101943.09;6274786;22;19903;-74
2024/01/21 10:43:57;;;;;;;;;;;;;;;1.54;96.47;101951.78;6274927;22;19914;-75
2024/01/21 10:46:24;;;;;;;;;;;;;;;1.55;97.03;101943.31;6274793;22;19918;-75
2024/01/21 10:48:51;;;;;;;;;;;;;;;1.56;97.25;101939.06;6274778;22;19903;-75
2024/01/21 10:51:18;;;;;;;;;;;;;;;1.59;97.50;101938.41;6274633;22;20208;-75
2024/01/21 10:53:44;;;;;;;;;;;;;;;1.61;97.09;101935.19;6275211;22;19914;-75
2024/01/21 10:56:10;;;;;;;;;;;;;;;1.64;98.04;101932.84;6274749;22;19903;-75
2024/01/21 10:58:36;;;;;;;;;;;;;;;1.68;98.38;101931.41;6274629;22;19953;-76
2024/01/21 11:01:01;;;;;;;;;;;;;;;1.70;97.91;101937.56;6274803;22;19910;-76
2024/01/21 11:03:27;;;;;;;;;;;;;;;1.74;98.16;101919.94;6247406;22;20315;-76
2024/01/21 11:06:06;;;;;;;;;;;;;;;1.77;98.45;101921.84;6274538;22;20265;-76
2024/01/21 11:08:32;;;;;;;;;;;;;;;1.82;97.36;101906.78;6274529;22;20014;-76
2024/01/21 11:11:06;;;;;;;;;;;;;;;1.86;98.29;101913.94;6274831;22;19903;-76
2024/01/21 11:13:41;;;;;;;;;;;;;;;1.92;98.00;101905.00;6274701;22;19949;-77
2024/01/21 11:16:09;;;;;;;;;;;;;;;1.99;98.05;101918.34;6274941;22;19904;-76
2024/01/21 11:18:34;;;;;;;;;;;;;;;2.03;98.42;101928.09;6274455;22;19918;-76
2024/01/21 11:21:01;;;;;;;;;;;;;;;2.09;98.61;101939.72;6274780;22;19903;-76
2024/01/21 11:23:27;;;;;;;;;;;;;;;2.16;98.05;101933.38;6274774;22;19914;-76
2024/01/21 11:25:52;;;;;;;;;;;;;;;2.19;97.68;101927.56;6274583;22;19907;-76
2024/01/21 11:28:28;;;;;;;;;;;;;;;2.24;98.31;101936.50;6274247;22;19907;-77
2024/01/21 11:31:04;;;;;;;;;;;;;;;2.29;97.38;101934.25;6274442;22;19953;-77
2024/01/21 11:33:30;;;;;;;;;;;;;;;2.33;97.43;101936.28;6274356;22;20250;-76
2024/01/21 11:35:57;;;;;;;;;;;;;;;2.37;97.70;101941.75;6274432;22;19952;-76
2024/01/21 11:38:23;;;;;;;;;;;;;;;2.41;98.32;101942.91;6273780;22;19956;-76
2024/01/21 11:40:59;;;;;;;;;;;;;;;2.46;97.27;101930.38;6247497;22;19970;-77
2024/01/21 11:43:24;;;;;;;;;;;;;;;2.49;98.06;101930.59;6274177;22;19918;-77
2024/01/21 11:45:50;;;;;;;;;;;;;;;2.50;98.19;101906.69;6274330;22;19982;-76
2024/01/21 11:48:15;;;;;;;;;;;;;;;2.52;97.76;101911.16;6274210;22;19910;-77
2024/01/21 11:50:40;;;;;;;;;;;;;;;2.54;98.28;101919.88;6247017;22;19957;-76
2024/01/21 11:53:06;;;;;;;;;;;;;;;2.56;97.94;101928.63;6274725;22;19934;-76
2024/01/21 11:55:32;;;;;;;;;;;;;;;2.57;98.36;101929.50;6274635;22;19903;-76
2024/01/21 11:57:57;;;;;;;;;;;;;;;2.59;98.44;101941.69;6246997;22;19903;-77
2024/01/21 12:00:22;;;;;;;;;;;;;;;2.60;98.01;101920.31;6246524;22;19903;-76
2024/01/21 12:02:48;;;;;;;;;;;;;;;2.63;97.90;101918.75;6274220;22;19972;-76
2024/01/21 12:05:16;;;;;;;;;;;;;;;2.66;97.99;101931.84;6247117;22;20315;-76
2024/01/21 12:07:42;;;;;;;;;;;;;;;2.67;98.44;101921.66;6274219;22;19954;-76
2024/01/21 12:10:08;;;;;;;;;;;;;;;2.69;98.13;101929.50;6274062;22;20315;-76
2024/01/21 12:12:33;;;;;;;;;;;;;;;2.70;98.78;101936.44;6247091;22;19911;-76
2024/01/21 12:14:58;;;;;;;;;;;;;;;2.71;98.78;101933.06;6274178;22;20345;-76
2024/01/21 12:17:24;;;;;;;;;;;;;;;2.71;98.82;101938.22;6274030;22;19909;-76
2024/01/21 12:19:49;;;;;;;;;;;;;;;2.71;98.55;101935.63;6274090;22;19977;-76
2024/01/21 12:22:14;;;;;;;;;;;;;;;2.72;98.75;101930.63;6274019;22;19903;-76
2024/01/21 12:24:40;;;;;;;;;;;;;;;2.73;98.68;101931.50;6273945;22;19907;-76
2024/01/21 12:27:06;;;;;;;;;;;;;;;2.76;98.75;101942.03;6274412;22;19903;-76
2024/01/21 12:29:37;;;;;;;;;;;;;;;2.77;99.31;101955.00;6273555;22;19907;-75
2024/01/21 12:32:03;;;;;;;;;;;;;;;2.78;98.96;101937.88;6273758;22;20223;-76
2024/01/21 12:34:30;;;;;;;;;;;;;;;2.79;99.23;101937.09;6246599;22;19911;-76